Georgia Highway — 7JCV — position and weather

sailwx.info

Track history (hours):
 
Tides and Currents Weather Stations Pressure Air Temp Water Temp Dewpoint Dewpoint Depression Visibility Wind Speed Wind Dir Waves Ship Positions

Georgia Highway

Last reported at 2018-Jan-12 14:57 UTC. Time now 2018-Jan-18 07:32 UTC.
Position N 09°15' W 079°55'.

Length 199 m; draft 9.2 m.

Type: Cargo ship. MMSI: 432629000.

Date/timePositionNaut miles runAvg speedWind from/ knotsBaromVisibWave heightAir tempDewpointWater temp
2018-Jan-12 14:57N 09°15' W 079°55'0 0.0
2018-Jan-12 14:30N 09°15' W 079°55'0 0.0
2018-Jan-12 14:00N 09°15' W 079°55'0 0.8
2018-Jan-12 13:30N 09°16' W 079°55'1 1.2
2018-Jan-12 13:00N 09°16' W 079°55'0 0.5
2018-Jan-12 12:30N 09°16' W 079°55'0 0.4
2018-Jan-12 12:00N 09°17' W 079°55'1 1.4
2018-Jan-12 11:30N 09°17' W 079°55'2 3.9
2018-Jan-12 11:00N 09°19' W 079°55'3 5.7
2018-Jan-12 10:30N 09°22' W 079°55'3 5.4
2018-Jan-12 10:00N 09°25' W 079°55'1 1.1
2018-Jan-12 09:29N 09°25' W 079°56'0 0.2
2018-Jan-12 08:59N 09°25' W 079°56'0 0.0
2018-Jan-12 08:29N 09°25' W 079°56'0 0.0
2018-Jan-12 07:59N 09°25' W 079°56'0 0.0
2018-Jan-12 07:29N 09°25' W 079°56'0 0.0
2018-Jan-12 06:59N 09°25' W 079°56'0 0.0
2018-Jan-12 06:29N 09°25' W 079°56'0 0.0
2018-Jan-12 05:59N 09°25' W 079°56'0 0.0
2018-Jan-12 05:29N 09°25' W 079°56'0 0.0
2018-Jan-12 04:59N 09°25' W 079°56'0 0.0
2018-Jan-12 04:29N 09°25' W 079°56'0 0.0
2018-Jan-12 03:59N 09°25' W 079°56'0 0.0
2018-Jan-12 03:29N 09°25' W 079°56'0 0.0
2018-Jan-12 02:59N 09°25' W 079°56'0 0.0
2018-Jan-12 02:29N 09°25' W 079°56'0 0.0
2018-Jan-12 01:59N 09°25' W 079°56'0 0.0
2018-Jan-12 01:29N 09°25' W 079°56'0 0.0
2018-Jan-12 00:59N 09°25' W 079°56'0 0.0
2018-Jan-12 00:29N 09°25' W 079°56'0 0.0
2018-Jan-11 23:59N 09°25' W 079°56'0 0.0
2018-Jan-11 23:29N 09°25' W 079°56'0 0.0
2018-Jan-11 22:59N 09°25' W 079°56'0 0.0
2018-Jan-11 22:29N 09°25' W 079°56'0 0.0
2018-Jan-11 21:59N 09°25' W 079°56'0 0.0
2018-Jan-11 21:29N 09°25' W 079°56'0 0.0
2018-Jan-11 20:59N 09°25' W 079°56'0 0.0
2018-Jan-11 20:29N 09°25' W 079°56'0 0.0
2018-Jan-11 19:59N 09°25' W 079°56'0 0.0
2018-Jan-11 19:29N 09°25' W 079°56'0 0.0
2018-Jan-11 18:59N 09°25' W 079°56'0 0.0
2018-Jan-11 18:29N 09°25' W 079°56'0 0.0
2018-Jan-11 17:59N 09°25' W 079°56'0 0.0
2018-Jan-11 17:29N 09°25' W 079°56'0 0.0
2018-Jan-11 16:59N 09°25' W 079°56'0 0.0
2018-Jan-11 16:29N 09°25' W 079°56'0 0.0
2018-Jan-11 15:59N 09°25' W 079°56'0 0.0
2018-Jan-11 15:29N 09°25' W 079°56'0 0.0
2018-Jan-11 14:59N 09°25' W 079°56'0 0.0
2018-Jan-11 14:29N 09°25' W 079°56'0 0.0
2018-Jan-11 13:56N 09°25' W 079°56'0 0.0
2018-Jan-11 13:29N 09°25' W 079°56'0 0.0
2018-Jan-11 12:59N 09°25' W 079°56'0 0.0
2018-Jan-11 12:29N 09°25' W 079°56'0 0.0
2018-Jan-11 11:59N 09°25' W 079°56'0 0.0
2018-Jan-11 11:29N 09°25' W 079°56'0 0.0
2018-Jan-11 10:59N 09°25' W 079°56'0 0.0
2018-Jan-11 10:29N 09°25' W 079°56'0 0.1
2018-Jan-11 09:59N 09°25' W 079°56'2 3.3
2018-Jan-11 09:30N 09°26' W 079°55'5 9.9
2018-Jan-11 09:00N 09°31' W 079°53'713.0
2018-Jan-11 08:30N 09°37' W 079°50'713.8
2018-Jan-11 08:00N 09°43' W 079°47'2213.6
2018-Jan-11 06:23N 09°47' W 079°25'226 6.1
2018-Jan-09 17:16N 10°42' W 075°42'415.1
2018-Jan-09 16:58N 10°47' W 075°42'  
2018-Jan-03 09:10N 36°47' W 075°46'2 9.7
2018-Jan-03 08:56N 36°49' W 075°47'4 9.6
2018-Jan-03 08:30N 36°51' W 075°51'5 9.6
2018-Jan-03 08:00N 36°55' W 075°56'5 9.4
2018-Jan-03 07:30N 36°58' W 075°60'917.5
2018-Jan-03 06:59N 37°05' W 076°07'5015.9
2018-Jan-03 03:49N 37°56' W 076°11'617.4
2018-Jan-03 03:27N 38°02' W 076°13'3418.1
2018-Jan-03 01:36N 38°34' W 076°26'217.8
2018-Jan-03 01:30N 38°35' W 076°26'917.7
2018-Jan-03 01:00N 38°44' W 076°26'917.5
2018-Jan-03 00:30N 38°53' W 076°24'816.4
2018-Jan-03 00:00N 39°01' W 076°23'714.6
2018-Jan-02 23:30N 39°08' W 076°24'611.3
2018-Jan-02 23:00N 39°12' W 076°30'3 6.2
2018-Jan-02 22:30N 39°14' W 076°32'0 0.6
2018-Jan-02 22:00N 39°14' W 076°32'0 0.0
2018-Jan-02 21:30N 39°14' W 076°32'0 0.0
2018-Jan-02 21:00N 39°14' W 076°32'0 0.0
2018-Jan-02 20:30N 39°14' W 076°32'0 0.0
2018-Jan-02 20:00N 39°14' W 076°32'0 0.0
2018-Jan-02 19:30N 39°14' W 076°32'0 0.0
2018-Jan-02 18:54N 39°14' W 076°32'0 0.0
2018-Jan-02 18:30N 39°14' W 076°32'0 0.0
2018-Jan-02 18:00N 39°14' W 076°32'0 0.0
2018-Jan-02 17:30N 39°14' W 076°32'0 0.0
2018-Jan-02 17:00N 39°14' W 076°32'0 0.0
2018-Jan-02 16:30N 39°14' W 076°32'0 0.0
2018-Jan-02 16:00N 39°14' W 076°32'0 0.0
2018-Jan-02 15:30N 39°14' W 076°32'0 0.0
2018-Jan-02 15:00N 39°14' W 076°32'  
Track history (hours):
 
Tides and Currents Weather Stations Pressure Air Temp Water Temp Dewpoint Dewpoint Depression Visibility Wind Speed Wind Dir Waves Ship Positions

Georgia Highway

Last reported at 2018-Jan-12 14:57 UTC. Time now 2018-Jan-18 07:32 UTC.
Position N 09°15' W 079°55'.

Length 199 m; draft 9.2 m.

Type: Cargo ship. MMSI: 432629000.

Date/timePositionNaut miles runAvg speedWind from/ knotsBaromVisibWave heightAir tempDewpointWater temp
2018-Jan-12 14:57N 09°15' W 079°55'0 0.0
2018-Jan-12 14:30N 09°15' W 079°55'0 0.0
2018-Jan-12 14:00N 09°15' W 079°55'0 0.8
2018-Jan-12 13:30N 09°16' W 079°55'1 1.2
2018-Jan-12 13:00N 09°16' W 079°55'0 0.5
2018-Jan-12 12:30N 09°16' W 079°55'0 0.4
2018-Jan-12 12:00N 09°17' W 079°55'1 1.4
2018-Jan-12 11:30N 09°17' W 079°55'2 3.9
2018-Jan-12 11:00N 09°19' W 079°55'3 5.7
2018-Jan-12 10:30N 09°22' W 079°55'3 5.4
2018-Jan-12 10:00N 09°25' W 079°55'1 1.1
2018-Jan-12 09:29N 09°25' W 079°56'0 0.2
2018-Jan-12 08:59N 09°25' W 079°56'0 0.0
2018-Jan-12 08:29N 09°25' W 079°56'0 0.0
2018-Jan-12 07:59N 09°25' W 079°56'0 0.0
2018-Jan-12 07:29N 09°25' W 079°56'0 0.0
2018-Jan-12 06:59N 09°25' W 079°56'0 0.0
2018-Jan-12 06:29N 09°25' W 079°56'0 0.0
2018-Jan-12 05:59N 09°25' W 079°56'0 0.0
2018-Jan-12 05:29N 09°25' W 079°56'0 0.0
2018-Jan-12 04:59N 09°25' W 079°56'0 0.0
2018-Jan-12 04:29N 09°25' W 079°56'0 0.0
2018-Jan-12 03:59N 09°25' W 079°56'0 0.0
2018-Jan-12 03:29N 09°25' W 079°56'0 0.0
2018-Jan-12 02:59N 09°25' W 079°56'0 0.0
2018-Jan-12 02:29N 09°25' W 079°56'0 0.0
2018-Jan-12 01:59N 09°25' W 079°56'0 0.0
2018-Jan-12 01:29N 09°25' W 079°56'0 0.0
2018-Jan-12 00:59N 09°25' W 079°56'0 0.0
2018-Jan-12 00:29N 09°25' W 079°56'0 0.0
2018-Jan-11 23:59N 09°25' W 079°56'0 0.0
2018-Jan-11 23:29N 09°25' W 079°56'0 0.0
2018-Jan-11 22:59N 09°25' W 079°56'0 0.0
2018-Jan-11 22:29N 09°25' W 079°56'0 0.0
2018-Jan-11 21:59N 09°25' W 079°56'0 0.0
2018-Jan-11 21:29N 09°25' W 079°56'0 0.0
2018-Jan-11 20:59N 09°25' W 079°56'0 0.0
2018-Jan-11 20:29N 09°25' W 079°56'0 0.0
2018-Jan-11 19:59N 09°25' W 079°56'0 0.0
2018-Jan-11 19:29N 09°25' W 079°56'0 0.0
2018-Jan-11 18:59N 09°25' W 079°56'0 0.0
2018-Jan-11 18:29N 09°25' W 079°56'0 0.0
2018-Jan-11 17:59N 09°25' W 079°56'0 0.0
2018-Jan-11 17:29N 09°25' W 079°56'0 0.0
2018-Jan-11 16:59N 09°25' W 079°56'0 0.0
2018-Jan-11 16:29N 09°25' W 079°56'0 0.0
2018-Jan-11 15:59N 09°25' W 079°56'0 0.0
2018-Jan-11 15:29N 09°25' W 079°56'0 0.0
2018-Jan-11 14:59N 09°25' W 079°56'0 0.0
2018-Jan-11 14:29N 09°25' W 079°56'0 0.0
2018-Jan-11 13:56N 09°25' W 079°56'0 0.0
2018-Jan-11 13:29N 09°25' W 079°56'0 0.0
2018-Jan-11 12:59N 09°25' W 079°56'0 0.0
2018-Jan-11 12:29N 09°25' W 079°56'0 0.0
2018-Jan-11 11:59N 09°25' W 079°56'0 0.0
2018-Jan-11 11:29N 09°25' W 079°56'0 0.0
2018-Jan-11 10:59N 09°25' W 079°56'0 0.0
2018-Jan-11 10:29N 09°25' W 079°56'0 0.1
2018-Jan-11 09:59N 09°25' W 079°56'2 3.3
2018-Jan-11 09:30N 09°26' W 079°55'5 9.9
2018-Jan-11 09:00N 09°31' W 079°53'713.0
2018-Jan-11 08:30N 09°37' W 079°50'713.8
2018-Jan-11 08:00N 09°43' W 079°47'2213.6
2018-Jan-11 06:23N 09°47' W 079°25'226 6.1
2018-Jan-09 17:16N 10°42' W 075°42'415.1
2018-Jan-09 16:58N 10°47' W 075°42'  
2018-Jan-03 09:10N 36°47' W 075°46'2 9.7
2018-Jan-03 08:56N 36°49' W 075°47'4 9.6
2018-Jan-03 08:30N 36°51' W 075°51'5 9.6
2018-Jan-03 08:00N 36°55' W 075°56'5 9.4
2018-Jan-03 07:30N 36°58' W 075°60'917.5
2018-Jan-03 06:59N 37°05' W 076°07'5015.9
2018-Jan-03 03:49N 37°56' W 076°11'617.4
2018-Jan-03 03:27N 38°02' W 076°13'3418.1
2018-Jan-03 01:36N 38°34' W 076°26'217.8
2018-Jan-03 01:30N 38°35' W 076°26'917.7
2018-Jan-03 01:00N 38°44' W 076°26'917.5
2018-Jan-03 00:30N 38°53' W 076°24'816.4
2018-Jan-03 00:00N 39°01' W 076°23'714.6
2018-Jan-02 23:30N 39°08' W 076°24'611.3
2018-Jan-02 23:00N 39°12' W 076°30'3 6.2
2018-Jan-02 22:30N 39°14' W 076°32'0 0.6
2018-Jan-02 22:00N 39°14' W 076°32'0 0.0
2018-Jan-02 21:30N 39°14' W 076°32'0 0.0
2018-Jan-02 21:00N 39°14' W 076°32'0 0.0
2018-Jan-02 20:30N 39°14' W 076°32'0 0.0
2018-Jan-02 20:00N 39°14' W 076°32'0 0.0
2018-Jan-02 19:30N 39°14' W 076°32'0 0.0
2018-Jan-02 18:54N 39°14' W 076°32'0 0.0
2018-Jan-02 18:30N 39°14' W 076°32'0 0.0
2018-Jan-02 18:00N 39°14' W 076°32'0 0.0
2018-Jan-02 17:30N 39°14' W 076°32'0 0.0
2018-Jan-02 17:00N 39°14' W 076°32'0 0.0
2018-Jan-02 16:30N 39°14' W 076°32'0 0.0
2018-Jan-02 16:00N 39°14' W 076°32'0 0.0
2018-Jan-02 15:30N 39°14' W 076°32'0 0.0
2018-Jan-02 15:00N 39°14' W 076°32'  

Dump ship's entire track history